sensor_id;sensor_type;location;lat;lon;timestamp;pressure;altitude;pressure_sealevel;temperature;humidity
79671;BME280;69137;50.878;8.050;2024-01-30T00:00:53;99499.88;;;1.18;94.16
79671;BME280;69137;50.878;8.050;2024-01-30T00:03:18;99506.94;;;1.19;94.05
79671;BME280;69137;50.878;8.050;2024-01-30T00:05:43;99496.41;;;1.09;94.15
79671;BME280;69137;50.878;8.050;2024-01-30T00:08:09;99493.72;;;1.09;94.17
79671;BME280;69137;50.878;8.050;2024-01-30T00:10:34;99498.59;;;1.05;94.05
79671;BME280;69137;50.878;8.050;2024-01-30T00:13:01;99497.78;;;1.05;93.70
79671;BME280;69137;50.878;8.050;2024-01-30T00:15:27;99493.13;;;0.99;94.34
79671;BME280;69137;50.878;8.050;2024-01-30T00:17:53;99504.19;;;1.04;93.99
79671;BME280;69137;50.878;8.050;2024-01-30T00:20:18;99497.09;;;1.03;94.09
79671;BME280;69137;50.878;8.050;2024-01-30T00:22:43;99498.97;;;1.02;94.00
79671;BME280;69137;50.878;8.050;2024-01-30T00:25:09;99503.72;;;0.92;93.92
79671;BME280;69137;50.878;8.050;2024-01-30T00:27:34;99497.31;;;0.93;94.30
79671;BME280;69137;50.878;8.050;2024-01-30T00:29:59;99495.00;;;0.90;93.93
79671;BME280;69137;50.878;8.050;2024-01-30T00:32:25;99498.56;;;0.82;93.69
79671;BME280;69137;50.878;8.050;2024-01-30T00:34:50;99503.63;;;0.77;94.08
79671;BME280;69137;50.878;8.050;2024-01-30T00:37:16;99501.63;;;0.79;94.47
79671;BME280;69137;50.878;8.050;2024-01-30T00:39:41;99495.88;;;0.82;94.50
79671;BME280;69137;50.878;8.050;2024-01-30T00:42:07;99500.63;;;0.72;95.34
79671;BME280;69137;50.878;8.050;2024-01-30T00:44:35;99497.16;;;0.63;95.49
79671;BME280;69137;50.878;8.050;2024-01-30T00:47:02;99498.34;;;0.61;95.61
79671;BME280;69137;50.878;8.050;2024-01-30T00:49:28;99495.13;;;0.65;95.76
79671;BME280;69137;50.878;8.050;2024-01-30T00:51:53;99498.97;;;0.71;95.23
79671;BME280;69137;50.878;8.050;2024-01-30T00:54:18;99492.44;;;0.65;95.70
79671;BME280;69137;50.878;8.050;2024-01-30T00:56:44;99487.41;;;0.62;95.79
79671;BME280;69137;50.878;8.050;2024-01-30T00:59:11;99494.00;;;0.60;95.68
79671;BME280;69137;50.878;8.050;2024-01-30T01:01:36;99488.25;;;0.63;95.41
79671;BME280;69137;50.878;8.050;2024-01-30T01:04:01;99487.94;;;0.58;95.43
79671;BME280;69137;50.878;8.050;2024-01-30T01:06:27;99486.59;;;0.54;95.41
79671;BME280;69137;50.878;8.050;2024-01-30T01:08:52;99484.59;;;0.56;95.59
79671;BME280;69137;50.878;8.050;2024-01-30T01:11:17;99480.22;;;0.55;95.20
79671;BME280;69137;50.878;8.050;2024-01-30T01:13:43;99480.53;;;0.60;94.89
79671;BME280;69137;50.878;8.050;2024-01-30T01:16:08;99482.22;;;0.61;94.55
79671;BME280;69137;50.878;8.050;2024-01-30T01:18:33;99483.72;;;0.63;94.28
79671;BME280;69137;50.878;8.050;2024-01-30T01:20:59;99485.69;;;0.70;93.76
79671;BME280;69137;50.878;8.050;2024-01-30T01:23:24;99482.16;;;0.69;93.91
79671;BME280;69137;50.878;8.050;2024-01-30T01:25:49;99484.19;;;0.67;93.86
79671;BME280;69137;50.878;8.050;2024-01-30T01:28:14;99478.22;;;0.49;94.09
79671;BME280;69137;50.878;8.050;2024-01-30T01:30:40;99477.22;;;0.50;94.22
79671;BME280;69137;50.878;8.050;2024-01-30T01:33:05;99481.88;;;0.56;94.00
79671;BME280;69137;50.878;8.050;2024-01-30T01:35:31;99484.75;;;0.54;93.95
79671;BME280;69137;50.878;8.050;2024-01-30T01:37:57;99477.69;;;0.53;94.00
79671;BME280;69137;50.878;8.050;2024-01-30T01:40:25;99470.81;;;0.51;94.25
79671;BME280;69137;50.878;8.050;2024-01-30T01:42:51;99480.22;;;0.55;94.05
79671;BME280;69137;50.878;8.050;2024-01-30T01:45:17;99481.22;;;0.54;93.76
79671;BME280;69137;50.878;8.050;2024-01-30T01:47:43;99486.13;;;0.50;93.76
79671;BME280;69137;50.878;8.050;2024-01-30T01:50:12;99476.56;;;0.48;94.14
79671;BME280;69137;50.878;8.050;2024-01-30T01:52:39;99478.94;;;0.42;94.63
79671;BME280;69137;50.878;8.050;2024-01-30T01:55:06;99476.56;;;0.48;94.95
79671;BME280;69137;50.878;8.050;2024-01-30T01:57:31;99479.91;;;0.41;95.15
79671;BME280;69137;50.878;8.050;2024-01-30T02:00:00;99477.09;;;0.35;95.19
79671;BME280;69137;50.878;8.050;2024-01-30T02:02:26;99473.59;;;0.34;95.07
79671;BME280;69137;50.878;8.050;2024-01-30T02:04:55;99477.78;;;0.37;94.90
79671;BME280;69137;50.878;8.050;2024-01-30T02:07:20;99471.84;;;0.41;94.28
79671;BME280;69137;50.878;8.050;2024-01-30T02:09:45;99467.50;;;0.40;94.42
79671;BME280;69137;50.878;8.050;2024-01-30T02:12:11;99476.09;;;0.36;94.69
79671;BME280;69137;50.878;8.050;2024-01-30T02:14:46;99476.44;;;0.33;95.01
79671;BME280;69137;50.878;8.050;2024-01-30T02:17:12;99482.84;;;0.32;94.92
79671;BME280;69137;50.878;8.050;2024-01-30T02:19:38;99476.78;;;0.30;94.99
79671;BME280;69137;50.878;8.050;2024-01-30T02:22:03;99478.81;;;0.28;95.13
79671;BME280;69137;50.878;8.050;2024-01-30T02:24:29;99475.13;;;0.29;95.25
79671;BME280;69137;50.878;8.050;2024-01-30T02:26:54;99471.41;;;0.30;95.08
79671;BME280;69137;50.878;8.050;2024-01-30T02:29:20;99474.09;;;0.30;94.89
79671;BME280;69137;50.878;8.050;2024-01-30T02:31:45;99473.06;;;0.31;94.94
79671;BME280;69137;50.878;8.050;2024-01-30T02:34:11;99472.91;;;0.32;94.36
79671;BME280;69137;50.878;8.050;2024-01-30T02:36:36;99476.63;;;0.31;93.87
79671;BME280;69137;50.878;8.050;2024-01-30T02:39:02;99475.28;;;0.27;93.87
79671;BME280;69137;50.878;8.050;2024-01-30T02:41:27;99470.06;;;0.26;94.05
79671;BME280;69137;50.878;8.050;2024-01-30T02:43:53;99470.94;;;0.26;94.19
79671;BME280;69137;50.878;8.050;2024-01-30T02:46:18;99469.63;;;0.14;95.06
79671;BME280;69137;50.878;8.050;2024-01-30T02:48:43;99473.50;;;0.11;95.27
79671;BME280;69137;50.878;8.050;2024-01-30T02:51:09;99465.75;;;0.16;95.53
79671;BME280;69137;50.878;8.050;2024-01-30T02:53:34;99466.25;;;0.12;95.73
79671;BME280;69137;50.878;8.050;2024-01-30T02:55:59;99459.22;;;0.11;95.75
79671;BME280;69137;50.878;8.050;2024-01-30T02:58:25;99452.16;;;0.10;95.00
79671;BME280;69137;50.878;8.050;2024-01-30T03:00:50;99452.66;;;0.13;94.37
79671;BME280;69137;50.878;8.050;2024-01-30T03:03:15;99446.28;;;0.14;94.15
79671;BME280;69137;50.878;8.050;2024-01-30T03:05:40;99447.28;;;0.13;93.98
79671;BME280;69137;50.878;8.050;2024-01-30T03:08:06;99443.09;;;0.11;94.04
79671;BME280;69137;50.878;8.050;2024-01-30T03:10:31;99440.06;;;0.14;94.28
79671;BME280;69137;50.878;8.050;2024-01-30T03:12:56;99437.09;;;0.01;94.71
79671;BME280;69137;50.878;8.050;2024-01-30T03:15:22;99436.25;;;-0.08;94.66
79671;BME280;69137;50.878;8.050;2024-01-30T03:17:48;99451.22;;;-0.14;95.01
79671;BME280;69137;50.878;8.050;2024-01-30T03:20:13;99446.88;;;-0.23;94.87
79671;BME280;69137;50.878;8.050;2024-01-30T03:22:38;99440.00;;;-0.26;94.76
79671;BME280;69137;50.878;8.050;2024-01-30T03:25:04;99434.94;;;-0.29;95.48
79671;BME280;69137;50.878;8.050;2024-01-30T03:27:29;99441.84;;;-0.18;95.90
79671;BME280;69137;50.878;8.050;2024-01-30T03:29:54;99434.63;;;-0.17;95.77
79671;BME280;69137;50.878;8.050;2024-01-30T03:32:20;99437.28;;;-0.17;95.41
79671;BME280;69137;50.878;8.050;2024-01-30T03:34:45;99425.88;;;-0.19;95.15
79671;BME280;69137;50.878;8.050;2024-01-30T03:37:10;99431.75;;;-0.16;94.79
79671;BME280;69137;50.878;8.050;2024-01-30T03:39:35;99427.72;;;-0.20;94.59
79671;BME280;69137;50.878;8.050;2024-01-30T03:42:01;99419.88;;;-0.30;95.31
79671;BME280;69137;50.878;8.050;2024-01-30T03:44:27;99425.56;;;-0.33;95.16
79671;BME280;69137;50.878;8.050;2024-01-30T03:46:52;99418.84;;;-0.29;95.11
79671;BME280;69137;50.878;8.050;2024-01-30T03:49:17;99419.50;;;-0.27;95.50
79671;BME280;69137;50.878;8.050;2024-01-30T03:51:43;99424.72;;;-0.25;95.82
79671;BME280;69137;50.878;8.050;2024-01-30T03:54:08;99420.22;;;-0.33;96.42
79671;BME280;69137;50.878;8.050;2024-01-30T03:56:33;99422.22;;;-0.35;96.48
79671;BME280;69137;50.878;8.050;2024-01-30T03:58:58;99421.38;;;-0.35;96.21
79671;BME280;69137;50.878;8.050;2024-01-30T04:01:25;99421.75;;;-0.38;95.88
79671;BME280;69137;50.878;8.050;2024-01-30T04:03:53;99419.06;;;-0.38;96.20
79671;BME280;69137;50.878;8.050;2024-01-30T04:06:19;99422.22;;;-0.35;96.35
79671;BME280;69137;50.878;8.050;2024-01-30T04:08:44;99420.69;;;-0.29;95.71
79671;BME280;69137;50.878;8.050;2024-01-30T04:11:09;99423.03;;;-0.26;94.96
79671;BME280;69137;50.878;8.050;2024-01-30T04:13:35;99421.88;;;-0.32;95.02
79671;BME280;69137;50.878;8.050;2024-01-30T04:16:01;99419.88;;;-0.30;95.29
79671;BME280;69137;50.878;8.050;2024-01-30T04:18:27;99419.38;;;-0.33;95.57
79671;BME280;69137;50.878;8.050;2024-01-30T04:20:53;99418.69;;;-0.35;95.24
79671;BME280;69137;50.878;8.050;2024-01-30T04:23:18;99408.47;;;-0.40;95.45
79671;BME280;69137;50.878;8.050;2024-01-30T04:25:43;99411.66;;;-0.45;95.29
79671;BME280;69137;50.878;8.050;2024-01-30T04:28:09;99411.31;;;-0.50;95.65
79671;BME280;69137;50.878;8.050;2024-01-30T04:30:37;99412.34;;;-0.51;95.94
79671;BME280;69137;50.878;8.050;2024-01-30T04:33:02;99405.81;;;-0.48;95.81
79671;BME280;69137;50.878;8.050;2024-01-30T04:35:28;99410.66;;;-0.43;95.40
79671;BME280;69137;50.878;8.050;2024-01-30T04:37:53;99404.59;;;-0.37;95.03
79671;BME280;69137;50.878;8.050;2024-01-30T04:40:19;99403.09;;;-0.40;95.25
79671;BME280;69137;50.878;8.050;2024-01-30T04:42:45;99405.97;;;-0.50;95.49
79671;BME280;69137;50.878;8.050;2024-01-30T04:45:10;99411.00;;;-0.47;96.13
79671;BME280;69137;50.878;8.050;2024-01-30T04:47:35;99403.63;;;-0.53;96.34
79671;BME280;69137;50.878;8.050;2024-01-30T04:50:01;99414.72;;;-0.56;96.84
79671;BME280;69137;50.878;8.050;2024-01-30T04:52:27;99410.84;;;-0.53;96.57
79671;BME280;69137;50.878;8.050;2024-01-30T04:54:52;99412.03;;;-0.56;96.42
79671;BME280;69137;50.878;8.050;2024-01-30T04:57:17;99415.41;;;-0.62;96.29
79671;BME280;69137;50.878;8.050;2024-01-30T04:59:43;99409.16;;;-0.62;96.57
79671;BME280;69137;50.878;8.050;2024-01-30T05:02:08;99417.53;;;-0.57;96.59
79671;BME280;69137;50.878;8.050;2024-01-30T05:04:33;99412.19;;;-0.57;96.10
79671;BME280;69137;50.878;8.050;2024-01-30T05:06:59;99407.34;;;-0.62;95.92
79671;BME280;69137;50.878;8.050;2024-01-30T05:09:24;99416.03;;;-0.60;95.79
79671;BME280;69137;50.878;8.050;2024-01-30T05:11:49;99418.38;;;-0.65;95.40
79671;BME280;69137;50.878;8.050;2024-01-30T05:14:14;99421.06;;;-0.65;95.67
79671;BME280;69137;50.878;8.050;2024-01-30T05:16:40;99420.44;;;-0.67;95.48
79671;BME280;69137;50.878;8.050;2024-01-30T05:19:06;99426.13;;;-0.62;95.40
79671;BME280;69137;50.878;8.050;2024-01-30T05:21:31;99422.44;;;-0.69;95.61
79671;BME280;69137;50.878;8.050;2024-01-30T05:23:56;99420.09;;;-0.64;95.66
79671;BME280;69137;50.878;8.050;2024-01-30T05:26:22;99420.56;;;-0.60;95.70
79671;BME280;69137;50.878;8.050;2024-01-30T05:28:48;99416.22;;;-0.53;95.65
79671;BME280;69137;50.878;8.050;2024-01-30T05:31:13;99423.44;;;-0.54;95.70
79671;BME280;69137;50.878;8.050;2024-01-30T05:33:40;99412.84;;;-0.55;95.86
79671;BME280;69137;50.878;8.050;2024-01-30T05:36:05;99420.91;;;-0.55;95.41
79671;BME280;69137;50.878;8.050;2024-01-30T05:38:31;99413.88;;;-0.56;94.74
79671;BME280;69137;50.878;8.050;2024-01-30T05:40:57;99414.22;;;-0.59;94.54
79671;BME280;69137;50.878;8.050;2024-01-30T05:43:25;99413.22;;;-0.67;94.57
79671;BME280;69137;50.878;8.050;2024-01-30T05:45:51;99414.38;;;-0.69;94.76
79671;BME280;69137;50.878;8.050;2024-01-30T05:48:17;99413.56;;;-0.70;94.89
79671;BME280;69137;50.878;8.050;2024-01-30T05:50:42;99416.53;;;-0.73;95.24
79671;BME280;69137;50.878;8.050;2024-01-30T05:53:08;99410.88;;;-0.70;94.98
79671;BME280;69137;50.878;8.050;2024-01-30T05:55:33;99402.28;;;-0.73;94.88
79671;BME280;69137;50.878;8.050;2024-01-30T05:57:58;99400.63;;;-0.74;95.49
79671;BME280;69137;50.878;8.050;2024-01-30T06:00:24;99403.78;;;-0.62;96.13
79671;BME280;69137;50.878;8.050;2024-01-30T06:02:49;99406.31;;;-0.61;95.22
79671;BME280;69137;50.878;8.050;2024-01-30T06:05:14;99398.13;;;-0.59;94.72
79671;BME280;69137;50.878;8.050;2024-01-30T06:07:39;99393.22;;;-0.56;94.78
79671;BME280;69137;50.878;8.050;2024-01-30T06:10:05;99399.63;;;-0.57;94.53
79671;BME280;69137;50.878;8.050;2024-01-30T06:12:32;99396.59;;;-0.54;94.52
79671;BME280;69137;50.878;8.050;2024-01-30T06:14:57;99397.94;;;-0.66;95.09
79671;BME280;69137;50.878;8.050;2024-01-30T06:17:23;99386.19;;;-0.65;95.03
79671;BME280;69137;50.878;8.050;2024-01-30T06:19:48;99389.53;;;-0.63;95.16
79671;BME280;69137;50.878;8.050;2024-01-30T06:22:14;99389.53;;;-0.63;95.19
79671;BME280;69137;50.878;8.050;2024-01-30T06:24:39;99397.75;;;-0.73;95.47
79671;BME280;69137;50.878;8.050;2024-01-30T06:27:04;99400.31;;;-0.79;96.31
79671;BME280;69137;50.878;8.050;2024-01-30T06:29:30;99402.66;;;-0.84;96.41
79671;BME280;69137;50.878;8.050;2024-01-30T06:31:55;99395.94;;;-0.89;96.57
79671;BME280;69137;50.878;8.050;2024-01-30T06:34:21;99397.28;;;-0.84;96.61
79671;BME280;69137;50.878;8.050;2024-01-30T06:36:46;99396.25;;;-0.83;96.52
79671;BME280;69137;50.878;8.050;2024-01-30T06:39:11;99400.16;;;-0.78;96.81
79671;BME280;69137;50.878;8.050;2024-01-30T06:41:37;99403.31;;;-0.74;96.27
79671;BME280;69137;50.878;8.050;2024-01-30T06:44:02;99405.31;;;-0.76;96.20
79671;BME280;69137;50.878;8.050;2024-01-30T06:46:29;99403.81;;;-0.79;96.06
79671;BME280;69137;50.878;8.050;2024-01-30T06:48:54;99414.88;;;-0.82;95.85
79671;BME280;69137;50.878;8.050;2024-01-30T06:51:19;99411.88;;;-0.87;95.82
79671;BME280;69137;50.878;8.050;2024-01-30T06:53:45;99408.84;;;-0.84;95.55
79671;BME280;69137;50.878;8.050;2024-01-30T06:56:10;99415.91;;;-0.83;95.79
79671;BME280;69137;50.878;8.050;2024-01-30T06:58:35;99416.06;;;-0.84;95.78
79671;BME280;69137;50.878;8.050;2024-01-30T07:01:01;99414.06;;;-0.82;95.66
79671;BME280;69137;50.878;8.050;2024-01-30T07:03:27;99418.94;;;-0.78;95.31
79671;BME280;69137;50.878;8.050;2024-01-30T07:05:52;99417.56;;;-0.82;95.19
79671;BME280;69137;50.878;8.050;2024-01-30T07:08:17;99410.16;;;-0.47;97.87
79671;BME280;69137;50.878;8.050;2024-01-30T07:10:43;99415.84;;;-0.42;95.59
79671;BME280;69137;50.878;8.050;2024-01-30T07:13:10;99415.53;;;-0.55;94.71
79671;BME280;69137;50.878;8.050;2024-01-30T07:15:35;99419.25;;;-0.56;94.42
79671;BME280;69137;50.878;8.050;2024-01-30T07:18:01;99414.84;;;-0.57;95.14
79671;BME280;69137;50.878;8.050;2024-01-30T07:20:27;99420.91;;;-0.55;95.79
79671;BME280;69137;50.878;8.050;2024-01-30T07:22:52;99424.94;;;-0.59;95.71
79671;BME280;69137;50.878;8.050;2024-01-30T07:25:18;99419.25;;;-0.64;95.74
79671;BME280;69137;50.878;8.050;2024-01-30T07:27:43;99422.78;;;-0.64;96.06
79671;BME280;69137;50.878;8.050;2024-01-30T07:30:08;99428.63;;;-0.69;96.15
79671;BME280;69137;50.878;8.050;2024-01-30T07:32:34;99426.78;;;-0.68;96.75
79671;BME280;69137;50.878;8.050;2024-01-30T07:34:59;99422.94;;;-0.66;96.20
79671;BME280;69137;50.878;8.050;2024-01-30T07:37:24;99426.13;;;-0.62;95.83
79671;BME280;69137;50.878;8.050;2024-01-30T07:39:49;99432.50;;;-0.63;96.21
79671;BME280;69137;50.878;8.050;2024-01-30T07:42:15;99421.59;;;-0.61;96.42
79671;BME280;69137;50.878;8.050;2024-01-30T07:44:40;99417.41;;;-0.64;97.11
79671;BME280;69137;50.878;8.050;2024-01-30T07:47:05;99415.03;;;-0.59;97.11
79671;BME280;69137;50.878;8.050;2024-01-30T07:49:31;99421.91;;;-0.48;97.19
79671;BME280;69137;50.878;8.050;2024-01-30T07:51:56;99431.31;;;-0.44;96.76
79671;BME280;69137;50.878;8.050;2024-01-30T07:54:21;99423.25;;;-0.44;96.62
79671;BME280;69137;50.878;8.050;2024-01-30T07:56:47;99424.22;;;-0.37;96.66
79671;BME280;69137;50.878;8.050;2024-01-30T07:59:12;99422.88;;;-0.25;96.36
79671;BME280;69137;50.878;8.050;2024-01-30T08:01:38;99434.44;;;-0.24;96.34
79671;BME280;69137;50.878;8.050;2024-01-30T08:04:03;99427.56;;;-0.27;96.88
79671;BME280;69137;50.878;8.050;2024-01-30T08:06:28;99434.97;;;-0.20;96.81
79671;BME280;69137;50.878;8.050;2024-01-30T08:08:54;99430.41;;;-0.12;96.95
79671;BME280;69137;50.878;8.050;2024-01-30T08:11:20;99440.13;;;-0.11;96.94
79671;BME280;69137;50.878;8.050;2024-01-30T08:13:45;99439.63;;;-0.06;96.73
79671;BME280;69137;50.878;8.050;2024-01-30T08:16:11;99444.13;;;0.02;96.72
79671;BME280;69137;50.878;8.050;2024-01-30T08:18:36;99452.34;;;0.08;97.08
79671;BME280;69137;50.878;8.050;2024-01-30T08:21:01;99448.44;;;0.19;96.90
79671;BME280;69137;50.878;8.050;2024-01-30T08:23:26;99440.66;;;0.32;96.56
79671;BME280;69137;50.878;8.050;2024-01-30T08:25:52;99442.50;;;0.32;96.56
79671;BME280;69137;50.878;8.050;2024-01-30T08:28:17;99439.47;;;0.35;96.00
79671;BME280;69137;50.878;8.050;2024-01-30T08:30:42;99448.00;;;0.38;96.02
79671;BME280;69137;50.878;8.050;2024-01-30T08:33:07;99453.03;;;0.41;96.05
79671;BME280;69137;50.878;8.050;2024-01-30T08:35:33;99455.56;;;0.43;95.72
79671;BME280;69137;50.878;8.050;2024-01-30T08:37:59;99451.84;;;0.52;95.26
79671;BME280;69137;50.878;8.050;2024-01-30T08:40:24;99459.72;;;0.54;95.59
79671;BME280;69137;50.878;8.050;2024-01-30T08:42:49;99456.72;;;0.49;96.05
79671;BME280;69137;50.878;8.050;2024-01-30T08:45:14;99448.59;;;0.57;96.18
79671;BME280;69137;50.878;8.050;2024-01-30T08:47:40;99445.56;;;0.60;96.42
79671;BME280;69137;50.878;8.050;2024-01-30T08:50:06;99451.47;;;0.55;96.88
79671;BME280;69137;50.878;8.050;2024-01-30T08:52:31;99444.72;;;0.59;96.85
79671;BME280;69137;50.878;8.050;2024-01-30T08:54:57;99436.78;;;0.66;96.97
79671;BME280;69137;50.878;8.050;2024-01-30T08:57:23;99436.28;;;0.71;96.95
79671;BME280;69137;50.878;8.050;2024-01-30T08:59:48;99445.28;;;0.78;96.85
79671;BME280;69137;50.878;8.050;2024-01-30T09:02:14;99448.94;;;0.85;96.87
79671;BME280;69137;50.878;8.050;2024-01-30T09:04:41;99438.84;;;0.87;96.34
79671;BME280;69137;50.878;8.050;2024-01-30T09:07:08;99438.38;;;0.83;97.46
79671;BME280;69137;50.878;8.050;2024-01-30T09:09:34;99435.25;;;0.95;97.38
79671;BME280;69137;50.878;8.050;2024-01-30T09:11:59;99427.78;;;1.05;97.01
79671;BME280;69137;50.878;8.050;2024-01-30T09:14:29;99440.00;;;1.16;96.87
79671;BME280;69137;50.878;8.050;2024-01-30T09:16:54;99443.13;;;1.27;96.50
79671;BME280;69137;50.878;8.050;2024-01-30T09:19:20;99433.25;;;1.20;96.11
79671;BME280;69137;50.878;8.050;2024-01-30T09:21:45;99433.72;;;1.23;96.25
79671;BME280;69137;50.878;8.050;2024-01-30T09:24:10;99433.53;;;1.25;96.55
79671;BME280;69137;50.878;8.050;2024-01-30T09:26:36;99437.34;;;1.30;97.17
79671;BME280;69137;50.878;8.050;2024-01-30T09:29:01;99438.31;;;1.38;97.33
79671;BME280;69137;50.878;8.050;2024-01-30T09:31:26;99432.34;;;1.42;96.88
79671;BME280;69137;50.878;8.050;2024-01-30T09:33:52;99431.44;;;1.50;96.89
79671;BME280;69137;50.878;8.050;2024-01-30T09:36:19;99430.81;;;1.48;96.98
79671;BME280;69137;50.878;8.050;2024-01-30T09:38:45;99429.41;;;1.52;96.87
79671;BME280;69137;50.878;8.050;2024-01-30T09:41:10;99424.19;;;1.50;97.81
79671;BME280;69137;50.878;8.050;2024-01-30T09:43:37;99429.53;;;1.59;97.41
79671;BME280;69137;50.878;8.050;2024-01-30T09:46:03;99427.13;;;1.64;97.09
79671;BME280;69137;50.878;8.050;2024-01-30T09:48:30;99428.91;;;1.71;96.69
79671;BME280;69137;50.878;8.050;2024-01-30T09:50:57;99436.78;;;1.73;96.92
79671;BME280;69137;50.878;8.050;2024-01-30T09:53:22;99435.78;;;1.74;97.23
79671;BME280;69137;50.878;8.050;2024-01-30T09:55:49;99443.59;;;1.84;97.51
79671;BME280;69137;50.878;8.050;2024-01-30T09:58:15;99444.16;;;1.79;97.58
79671;BME280;69137;50.878;8.050;2024-01-30T10:00:41;99445.72;;;1.88;97.22
79671;BME280;69137;50.878;8.050;2024-01-30T10:03:06;99443.50;;;1.92;97.45
79671;BME280;69137;50.878;8.050;2024-01-30T10:05:32;99441.56;;;1.86;97.53
79671;BME280;69137;50.878;8.050;2024-01-30T10:07:59;99452.34;;;2.01;97.67
79671;BME280;69137;50.878;8.050;2024-01-30T10:10:25;99456.00;;;2.08;97.26
79671;BME280;69137;50.878;8.050;2024-01-30T10:12:51;99457.94;;;2.14;96.94
79671;BME280;69137;50.878;8.050;2024-01-30T10:15:17;99453.09;;;2.24;96.01
79671;BME280;69137;50.878;8.050;2024-01-30T10:17:44;99455.41;;;2.27;95.92
79671;BME280;69137;50.878;8.050;2024-01-30T10:20:11;99459.97;;;2.27;96.18
79671;BME280;69137;50.878;8.050;2024-01-30T10:22:36;99451.88;;;2.42;95.88
79671;BME280;69137;50.878;8.050;2024-01-30T10:25:01;99456.50;;;2.48;95.85
79671;BME280;69137;50.878;8.050;2024-01-30T10:27:27;99444.41;;;2.58;95.79
79671;BME280;69137;50.878;8.050;2024-01-30T10:29:54;99444.16;;;2.75;95.42
79671;BME280;69137;50.878;8.050;2024-01-30T10:32:20;99449.09;;;2.86;94.73
79671;BME280;69137;50.878;8.050;2024-01-30T10:34:46;99455.28;;;3.01;94.47
79671;BME280;69137;50.878;8.050;2024-01-30T10:37:11;99457.88;;;3.10;93.78
79671;BME280;69137;50.878;8.050;2024-01-30T10:39:39;99444.38;;;3.10;94.15
79671;BME280;69137;50.878;8.050;2024-01-30T10:42:06;99443.28;;;3.04;94.63
79671;BME280;69137;50.878;8.050;2024-01-30T10:47:11;99446.22;;;3.31;95.35
79671;BME280;69137;50.878;8.050;2024-01-30T10:49:41;99447.06;;;3.31;95.21
79671;BME280;69137;50.878;8.050;2024-01-30T10:52:09;99445.66;;;3.35;94.97
79671;BME280;69137;50.878;8.050;2024-01-30T10:54:35;99445.91;;;3.40;94.75
79671;BME280;69137;50.878;8.050;2024-01-30T10:57:01;99443.47;;;3.45;94.62
79671;BME280;69137;50.878;8.050;2024-01-30T10:59:29;99442.41;;;3.46;93.98
79671;BME280;69137;50.878;8.050;2024-01-30T11:01:57;99434.16;;;3.55;93.91
79671;BME280;69137;50.878;8.050;2024-01-30T11:04:22;99440.78;;;3.52;93.88
79671;BME280;69137;50.878;8.050;2024-01-30T11:06:49;99444.56;;;3.58;93.73
79671;BME280;69137;50.878;8.050;2024-01-30T11:09:17;99438.81;;;3.61;94.11
79671;BME280;69137;50.878;8.050;2024-01-30T11:11:55;99445.72;;;3.70;93.89
79671;BME280;69137;50.878;8.050;2024-01-30T11:14:23;99451.38;;;3.75;93.79
79671;BME280;69137;50.878;8.050;2024-01-30T11:16:50;99442.47;;;3.81;93.49
79671;BME280;69137;50.878;8.050;2024-01-30T11:19:15;99455.06;;;3.96;93.01
79671;BME280;69137;50.878;8.050;2024-01-30T11:21:43;99454.03;;;3.97;92.93
79671;BME280;69137;50.878;8.050;2024-01-30T11:24:08;99451.19;;;4.05;92.63
79671;BME280;69137;50.878;8.050;2024-01-30T11:26:34;99452.28;;;4.17;92.01
79671;BME280;69137;50.878;8.050;2024-01-30T11:29:03;99448.81;;;4.23;92.12
79671;BME280;69137;50.878;8.050;2024-01-30T11:31:29;99432.59;;;4.30;91.81
79671;BME280;69137;50.878;8.050;2024-01-30T11:33:56;99436.97;;;4.31;91.76
79671;BME280;69137;50.878;8.050;2024-01-30T11:36:25;99442.00;;;4.34;92.58
79671;BME280;69137;50.878;8.050;2024-01-30T11:38:50;99446.19;;;4.43;92.20
79671;BME280;69137;50.878;8.050;2024-01-30T11:41:17;99436.88;;;4.52;92.38
79671;BME280;69137;50.878;8.050;2024-01-30T11:43:43;99438.19;;;4.70;92.12
79671;BME280;69137;50.878;8.050;2024-01-30T11:46:16;99426.97;;;4.73;91.81
79671;BME280;69137;50.878;8.050;2024-01-30T11:48:41;99423.22;;;4.80;93.00
79671;BME280;69137;50.878;8.050;2024-01-30T11:51:06;99427.41;;;4.90;92.22
79671;BME280;69137;50.878;8.050;2024-01-30T11:53:31;99420.56;;;5.00;92.82
79671;BME280;69137;50.878;8.050;2024-01-30T11:55:57;99424.56;;;5.11;92.39
79671;BME280;69137;50.878;8.050;2024-01-30T11:58:25;99407.50;;;5.31;93.07
79671;BME280;69137;50.878;8.050;2024-01-30T12:00:56;99405.84;;;5.43;92.83
79671;BME280;69137;50.878;8.050;2024-01-30T12:03:21;99397.91;;;5.55;92.14
79671;BME280;69137;50.878;8.050;2024-01-30T12:05:54;99402.06;;;5.77;93.42
79671;BME280;69137;50.878;8.050;2024-01-30T12:08:20;99393.28;;;5.88;92.95
79671;BME280;69137;50.878;8.050;2024-01-30T12:10:45;99394.13;;;5.96;91.27
79671;BME280;69137;50.878;8.050;2024-01-30T12:13:10;99391.63;;;6.07;91.14
79671;BME280;69137;50.878;8.050;2024-01-30T12:15:36;99394.94;;;6.09;90.34
79671;BME280;69137;50.878;8.050;2024-01-30T12:18:05;99386.78;;;6.16;90.11
79671;BME280;69137;50.878;8.050;2024-01-30T12:20:31;99395.13;;;6.21;91.54
79671;BME280;69137;50.878;8.050;2024-01-30T12:22:56;99395.69;;;6.37;90.52
79671;BME280;69137;50.878;8.050;2024-01-30T12:25:21;99393.78;;;6.44;90.39
79671;BME280;69137;50.878;8.050;2024-01-30T12:27:49;99398.16;;;6.51;89.73
79671;BME280;69137;50.878;8.050;2024-01-30T12:30:15;99394.34;;;6.59;90.42
79671;BME280;69137;50.878;8.050;2024-01-30T12:32:43;99388.06;;;6.65;89.72
79671;BME280;69137;50.878;8.050;2024-01-30T12:35:19;99393.63;;;6.77;89.10
79671;BME280;69137;50.878;8.050;2024-01-30T12:37:46;99390.91;;;6.77;88.63
79671;BME280;69137;50.878;8.050;2024-01-30T12:40:13;99386.31;;;6.77;87.64
79671;BME280;69137;50.878;8.050;2024-01-30T12:42:40;99388.78;;;6.86;86.61
79671;BME280;69137;50.878;8.050;2024-01-30T12:45:07;99374.97;;;6.87;87.14
79671;BME280;69137;50.878;8.050;2024-01-30T12:47:32;99383.72;;;6.89;86.40
79671;BME280;69137;50.878;8.050;2024-01-30T12:49:58;99380.00;;;6.90;86.58
79671;BME280;69137;50.878;8.050;2024-01-30T12:52:24;99391.81;;;7.03;85.93
79671;BME280;69137;50.878;8.050;2024-01-30T12:54:50;99387.00;;;7.05;85.85
79671;BME280;69137;50.878;8.050;2024-01-30T12:57:16;99392.16;;;7.13;85.62
79671;BME280;69137;50.878;8.050;2024-01-30T12:59:42;99398.28;;;7.08;86.12
79671;BME280;69137;50.878;8.050;2024-01-30T13:02:08;99391.31;;;7.12;86.09